createdAt,value
2023-01-26T00:00:53.036Z,43.40
2023-01-26T00:03:22.797Z,43.93
2023-01-26T00:05:49.991Z,42.97
2023-01-26T00:08:17.232Z,41.77
2023-01-26T00:10:50.714Z,44.93
2023-01-26T00:13:19.866Z,46.20
2023-01-26T00:15:47.355Z,44.67
2023-01-26T00:18:14.602Z,45.93
2023-01-26T00:20:41.759Z,45.53
2023-01-26T00:23:08.949Z,46.07
2023-01-26T00:25:38.088Z,46.23
2023-01-26T00:28:05.461Z,48.77
2023-01-26T00:30:32.626Z,46.33
2023-01-26T00:33:01.813Z,46.40
2023-01-26T00:35:28.967Z,45.50
2023-01-26T00:37:56.133Z,46.03
2023-01-26T00:40:23.299Z,44.97
2023-01-26T00:42:50.439Z,45.23
2023-01-26T00:45:17.719Z,46.57
2023-01-26T00:47:44.906Z,45.13
2023-01-26T00:50:12.590Z,46.43
2023-01-26T00:52:39.970Z,42.70
2023-01-26T00:55:07.476Z,46.10
2023-01-26T00:57:34.672Z,46.87
2023-01-26T01:00:01.789Z,45.07
2023-01-26T01:02:28.996Z,44.73
2023-01-26T01:04:56.236Z,41.83
2023-01-26T01:07:24.031Z,45.20
2023-01-26T01:09:51.197Z,42.80
2023-01-26T01:12:18.364Z,41.67
2023-01-26T01:14:45.535Z,40.20
2023-01-26T01:17:12.738Z,39.77
2023-01-26T01:19:40.116Z,39.97
2023-01-26T01:22:07.453Z,41.70
2023-01-26T01:24:35.339Z,40.60
2023-01-26T01:27:02.632Z,39.53
2023-01-26T01:29:29.900Z,37.80
2023-01-26T01:31:57.197Z,37.07
2023-01-26T01:34:24.403Z,37.43
2023-01-26T01:36:52.231Z,37.50
2023-01-26T01:39:19.388Z,36.43
2023-01-26T01:41:46.781Z,34.60
2023-01-26T01:44:15.285Z,39.23
2023-01-26T01:46:54.721Z,36.77
2023-01-26T01:49:24.958Z,34.43
2023-01-26T01:51:54.656Z,37.10
2023-01-26T01:54:24.900Z,38.93
2023-01-26T01:56:54.379Z,36.90
2023-01-26T01:59:22.503Z,36.90
2023-01-26T02:01:51.033Z,35.27
2023-01-26T02:04:20.135Z,36.50
2023-01-26T02:06:54.650Z,36.57
2023-01-26T02:09:53.909Z,38.40
2023-01-26T02:12:23.937Z,33.57
2023-01-26T02:14:52.740Z,34.93
2023-01-26T02:17:20.223Z,35.30
2023-01-26T02:19:47.366Z,35.23
2023-01-26T02:22:21.540Z,35.50
2023-01-26T02:24:49.350Z,38.20
2023-01-26T02:27:16.513Z,37.97
2023-01-26T02:29:43.797Z,35.90
2023-01-26T02:32:10.998Z,36.97
2023-01-26T02:34:38.224Z,40.40
2023-01-26T02:37:05.606Z,38.37
2023-01-26T02:39:41.967Z,37.20
2023-01-26T02:42:27.769Z,36.57
2023-01-26T02:44:55.153Z,38.87
2023-01-26T02:47:22.339Z,37.93
2023-01-26T02:49:52.421Z,40.00
2023-01-26T02:52:23.865Z,38.87
2023-01-26T02:55:09.686Z,39.57
2023-01-26T02:57:37.145Z,38.00
2023-01-26T03:00:07.513Z,36.53
2023-01-26T03:02:34.677Z,39.40
2023-01-26T03:05:01.909Z,36.83
2023-01-26T03:07:29.230Z,36.40
2023-01-26T03:09:59.002Z,37.67
2023-01-26T03:12:26.681Z,36.50
2023-01-26T03:15:13.116Z,36.73
2023-01-26T03:17:40.239Z,40.13
2023-01-26T03:20:26.487Z,38.77
2023-01-26T03:23:12.526Z,36.87
2023-01-26T03:25:58.536Z,37.20
2023-01-26T03:28:26.332Z,38.07
2023-01-26T03:30:54.932Z,38.90
2023-01-26T03:33:22.304Z,38.07
2023-01-26T03:35:54.174Z,40.33
2023-01-26T03:38:21.432Z,41.93
2023-01-26T03:41:07.280Z,39.67
2023-01-26T03:43:52.838Z,40.13
2023-01-26T03:46:38.753Z,37.23
2023-01-26T03:49:24.413Z,38.60
2023-01-26T03:52:10.162Z,39.50
2023-01-26T03:54:56.144Z,34.53
2023-01-26T03:57:23.329Z,35.10
2023-01-26T03:59:50.504Z,36.27
2023-01-26T04:02:36.346Z,35.77
2023-01-26T04:05:22.202Z,37.07
2023-01-26T04:08:08.215Z,35.47
2023-01-26T04:10:35.387Z,36.17
2023-01-26T04:13:21.096Z,39.13
2023-01-26T04:16:07.113Z,34.50
2023-01-26T04:18:53.350Z,36.73
2023-01-26T04:21:35.895Z,33.80
2023-01-26T04:24:09.588Z,35.23
2023-01-26T04:26:37.658Z,38.13
2023-01-26T04:29:05.691Z,38.17
2023-01-26T04:31:33.114Z,35.93
2023-01-26T04:34:01.070Z,36.17
2023-01-26T04:36:28.360Z,35.33
2023-01-26T04:38:55.790Z,35.50
2023-01-26T04:41:23.359Z,36.80
2023-01-26T04:43:50.640Z,37.30
2023-01-26T04:46:17.924Z,37.33
2023-01-26T04:48:45.098Z,32.63
2023-01-26T04:51:16.739Z,35.30
2023-01-26T04:53:46.512Z,35.43
2023-01-26T04:56:23.584Z,36.10
2023-01-26T04:58:51.403Z,31.70
2023-01-26T05:01:18.789Z,33.63
2023-01-26T05:03:46.080Z,34.23
2023-01-26T05:06:13.771Z,36.67
2023-01-26T05:08:40.933Z,34.73
2023-01-26T05:11:08.221Z,34.47
2023-01-26T05:13:39.594Z,35.20
2023-01-26T05:16:07.869Z,35.70
2023-01-26T05:18:35.067Z,34.03
2023-01-26T05:21:02.309Z,34.93
2023-01-26T05:23:29.485Z,36.27
2023-01-26T05:25:56.700Z,33.10
2023-01-26T05:28:23.935Z,30.17
2023-01-26T05:30:51.122Z,29.67
2023-01-26T05:33:22.079Z,27.47
2023-01-26T05:35:49.966Z,29.03
2023-01-26T05:38:17.425Z,32.70
2023-01-26T05:40:44.696Z,32.00
2023-01-26T05:43:12.770Z,29.97
2023-01-26T05:45:40.654Z,31.00
2023-01-26T05:48:08.005Z,29.10
2023-01-26T05:50:35.175Z,28.83
2023-01-26T05:53:03.087Z,29.43
2023-01-26T05:55:30.430Z,28.23
2023-01-26T05:57:57.553Z,28.77
2023-01-26T06:00:25.233Z,27.60
2023-01-26T06:02:52.479Z,28.40
2023-01-26T06:05:19.921Z,27.20
2023-01-26T06:07:47.126Z,27.57
2023-01-26T06:10:14.384Z,26.90
2023-01-26T06:12:42.980Z,28.27
2023-01-26T06:15:10.679Z,28.70
2023-01-26T06:17:41.626Z,26.93
2023-01-26T06:20:09.633Z,25.73
2023-01-26T06:22:36.947Z,26.30
2023-01-26T06:25:04.145Z,25.07
2023-01-26T06:27:31.357Z,28.10
2023-01-26T06:29:58.606Z,28.33
2023-01-26T06:32:25.907Z,27.93
2023-01-26T06:34:53.618Z,24.27
2023-01-26T06:37:21.021Z,25.20
2023-01-26T06:39:48.185Z,25.97
2023-01-26T06:42:15.352Z,28.60
2023-01-26T06:44:42.555Z,24.13
2023-01-26T06:47:09.809Z,27.47
2023-01-26T06:49:37.030Z,25.80
2023-01-26T06:52:05.881Z,23.70
2023-01-26T06:54:33.171Z,25.00
2023-01-26T06:57:00.393Z,24.63
2023-01-26T06:59:27.539Z,24.93
2023-01-26T07:01:54.721Z,25.23
2023-01-26T07:04:21.855Z,23.57
2023-01-26T07:06:49.041Z,26.23
2023-01-26T07:09:16.177Z,24.77
2023-01-26T07:11:43.355Z,26.93
2023-01-26T07:14:10.556Z,26.13
2023-01-26T07:16:37.758Z,26.90
2023-01-26T07:19:04.959Z,26.43
2023-01-26T07:21:32.116Z,26.23
2023-01-26T07:23:59.326Z,25.53
2023-01-26T07:26:26.679Z,24.47
2023-01-26T07:28:53.871Z,24.90
2023-01-26T07:31:21.155Z,23.93
2023-01-26T07:33:48.481Z,26.27
2023-01-26T07:36:15.644Z,25.13
2023-01-26T07:38:42.765Z,26.40
2023-01-26T07:41:12.094Z,23.87
2023-01-26T07:43:39.564Z,25.37
2023-01-26T07:46:07.032Z,25.90
2023-01-26T07:48:34.449Z,23.50
2023-01-26T07:51:03.657Z,23.93
2023-01-26T07:53:34.101Z,22.83
2023-01-26T07:56:14.409Z,23.37
2023-01-26T07:58:41.787Z,22.30
2023-01-26T08:01:12.863Z,21.03
2023-01-26T08:03:40.092Z,21.77
2023-01-26T08:06:10.161Z,22.50
2023-01-26T08:08:42.269Z,23.43
2023-01-26T08:11:10.303Z,23.13
2023-01-26T08:13:37.491Z,22.80
2023-01-26T08:16:06.105Z,25.17
2023-01-26T08:18:33.355Z,24.57
2023-01-26T08:21:00.642Z,26.00
2023-01-26T08:23:28.216Z,26.73
2023-01-26T08:25:55.513Z,26.97
2023-01-26T08:28:22.823Z,25.97
2023-01-26T08:30:50.058Z,27.07
2023-01-26T08:33:17.421Z,26.53
2023-01-26T08:35:44.618Z,24.67
2023-01-26T08:38:11.821Z,27.07
2023-01-26T08:40:38.980Z,24.70
2023-01-26T08:43:06.181Z,26.47
2023-01-26T08:45:33.462Z,26.23
2023-01-26T08:48:00.835Z,26.73
2023-01-26T08:50:27.969Z,27.30
2023-01-26T08:52:56.875Z,25.67
2023-01-26T08:55:24.132Z,27.10
2023-01-26T08:57:55.313Z,26.47
2023-01-26T09:00:23.552Z,23.67
2023-01-26T09:02:51.058Z,26.13
2023-01-26T09:05:18.447Z,25.17
2023-01-26T09:07:45.739Z,28.20
2023-01-26T09:10:13.512Z,26.40
2023-01-26T09:12:41.342Z,25.93
2023-01-26T09:15:09.052Z,26.90
2023-01-26T09:17:36.236Z,25.83
2023-01-26T09:20:04.464Z,27.57
2023-01-26T09:22:31.724Z,24.30
2023-01-26T09:24:58.957Z,24.03
2023-01-26T09:27:26.213Z,22.90
2023-01-26T09:29:54.039Z,23.67
2023-01-26T09:32:21.322Z,22.37
2023-01-26T09:34:49.836Z,21.47
2023-01-26T09:37:17.376Z,21.10
2023-01-26T09:39:44.634Z,19.47
2023-01-26T09:42:22.419Z,19.97
2023-01-26T09:44:58.675Z,19.97
2023-01-26T09:47:46.102Z,19.40
2023-01-26T09:50:15.356Z,19.67
2023-01-26T09:52:53.512Z,18.93
2023-01-26T09:55:21.560Z,17.20
2023-01-26T09:57:50.112Z,18.10
2023-01-26T10:00:25.961Z,18.17
2023-01-26T10:02:55.931Z,15.87
2023-01-26T10:05:23.140Z,15.70
2023-01-26T10:07:50.341Z,16.10
2023-01-26T10:10:20.916Z,15.73
2023-01-26T10:12:51.341Z,15.30
2023-01-26T10:15:18.512Z,15.07
2023-01-26T10:17:46.616Z,15.90
2023-01-26T10:20:19.210Z,15.63
2023-01-26T10:22:49.028Z,14.43
2023-01-26T10:25:20.663Z,15.13
2023-01-26T10:27:52.084Z,14.50
2023-01-26T10:30:20.679Z,13.20
2023-01-26T10:32:52.015Z,13.70
2023-01-26T10:35:20.943Z,14.73
2023-01-26T10:37:48.704Z,13.60
2023-01-26T10:40:17.365Z,14.03
2023-01-26T10:42:54.827Z,14.30
2023-01-26T10:45:30.374Z,14.33
2023-01-26T10:48:16.393Z,14.40
2023-01-26T10:50:43.675Z,12.33
2023-01-26T10:53:19.161Z,13.37
2023-01-26T10:55:58.857Z,15.87
2023-01-26T10:58:44.113Z,13.07
2023-01-26T11:01:15.715Z,12.50
2023-01-26T11:03:43.717Z,11.93
2023-01-26T11:06:18.146Z,12.57
2023-01-26T11:08:45.385Z,12.57
2023-01-26T11:11:27.059Z,11.37
2023-01-26T11:14:13.915Z,12.80
2023-01-26T11:16:43.651Z,12.97
2023-01-26T11:19:14.920Z,12.10
2023-01-26T11:21:43.347Z,11.03
2023-01-26T11:24:21.059Z,13.87
2023-01-26T11:27:07.121Z,13.33
2023-01-26T11:29:49.695Z,12.00
2023-01-26T11:32:26.044Z,11.10
2023-01-26T11:34:59.239Z,13.63
2023-01-26T11:37:44.823Z,11.90
2023-01-26T11:40:15.231Z,12.57
2023-01-26T11:42:50.969Z,12.07
2023-01-26T11:45:32.663Z,11.23
2023-01-26T11:48:11.870Z,11.40
2023-01-26T11:50:41.870Z,11.93
2023-01-26T11:53:20.498Z,13.07
2023-01-26T11:56:06.140Z,12.83
2023-01-26T11:58:46.241Z,13.77
2023-01-26T12:01:20.358Z,11.93
2023-01-26T12:03:48.959Z,13.23
2023-01-26T12:06:19.178Z,12.13
2023-01-26T12:08:50.341Z,11.37
2023-01-26T12:11:23.323Z,11.97
2023-01-26T12:13:57.293Z,12.47
2023-01-26T12:16:28.400Z,13.07
2023-01-26T12:19:10.829Z,11.77
2023-01-26T12:21:40.713Z,11.50
2023-01-26T12:24:33.868Z,11.43
2023-01-26T12:26:58.808Z,12.97
2023-01-26T12:29:29.687Z,13.00
2023-01-26T12:32:04.346Z,12.67
2023-01-26T12:34:33.817Z,12.83
2023-01-26T12:37:22.152Z,13.20
2023-01-26T12:39:54.582Z,14.77
2023-01-26T12:42:30.556Z,13.43
2023-01-26T12:45:00.083Z,13.17
2023-01-26T12:47:41.141Z,13.67
2023-01-26T12:50:27.125Z,13.50
2023-01-26T12:53:05.968Z,12.87
2023-01-26T12:55:36.069Z,13.57
2023-01-26T12:58:04.960Z,14.93
2023-01-26T13:00:34.134Z,14.37
2023-01-26T13:03:04.707Z,13.60
2023-01-26T13:05:33.841Z,15.27
2023-01-26T13:08:21.223Z,14.33
2023-01-26T13:10:49.889Z,14.47
2023-01-26T13:13:19.951Z,16.37
2023-01-26T13:15:47.569Z,14.57
2023-01-26T13:18:18.187Z,15.67
2023-01-26T13:20:46.629Z,17.60
2023-01-26T13:23:29.253Z,17.17
2023-01-26T13:26:15.142Z,19.33
2023-01-26T13:28:42.767Z,18.47
2023-01-26T13:31:10.913Z,20.60
2023-01-26T13:33:41.393Z,18.90
2023-01-26T13:36:16.905Z,18.97
2023-01-26T13:38:45.769Z,22.10
2023-01-26T13:41:20.721Z,20.57
2023-01-26T13:43:57.850Z,23.03
2023-01-26T13:46:46.429Z,21.87
2023-01-26T13:49:38.516Z,22.33
2023-01-26T13:52:17.040Z,25.53
2023-01-26T13:54:44.239Z,24.00
2023-01-26T13:57:12.009Z,26.23
2023-01-26T13:59:52.397Z,26.30
2023-01-26T14:02:31.384Z,28.00
2023-01-26T14:04:59.401Z,28.80
2023-01-26T14:07:33.247Z,34.50
2023-01-26T14:10:02.192Z,31.70
2023-01-26T14:12:58.867Z,29.60
2023-01-26T14:15:28.752Z,31.80
2023-01-26T14:17:59.159Z,36.97
2023-01-26T14:20:26.356Z,33.73
2023-01-26T14:23:03.733Z,33.07
2023-01-26T14:25:30.715Z,34.10
2023-01-26T14:27:57.895Z,32.87
2023-01-26T14:30:30.034Z,31.37
2023-01-26T14:33:06.472Z,31.63
2023-01-26T14:35:33.484Z,24.50
2023-01-26T14:38:28.897Z,25.87
2023-01-26T14:40:58.948Z,22.07
2023-01-26T14:43:29.792Z,24.90
2023-01-26T14:45:56.548Z,20.43
2023-01-26T14:48:32.542Z,21.93
2023-01-26T14:51:01.019Z,21.97
2023-01-26T14:53:30.177Z,22.00
2023-01-26T14:55:57.142Z,23.03
2023-01-26T14:58:33.592Z,22.63
2023-01-26T15:01:03.148Z,23.67
2023-01-26T15:03:34.177Z,24.07
2023-01-26T15:06:29.396Z,22.93
2023-01-26T15:09:02.037Z,20.70
2023-01-26T15:11:58.410Z,20.87
2023-01-26T15:14:50.373Z,20.47
2023-01-26T15:17:40.034Z,21.03
2023-01-26T15:20:16.019Z,20.43
2023-01-26T15:22:50.486Z,19.70
2023-01-26T15:25:28.887Z,18.97
2023-01-26T15:27:58.740Z,18.90
2023-01-26T15:30:30.284Z,19.83
2023-01-26T15:32:58.082Z,18.60
2023-01-26T15:35:26.715Z,19.27
2023-01-26T15:38:02.967Z,18.43
2023-01-26T15:40:30.479Z,18.67
2023-01-26T15:43:17.388Z,18.10
2023-01-26T15:45:50.281Z,16.97
2023-01-26T15:48:17.562Z,18.93
2023-01-26T15:50:44.847Z,18.83
2023-01-26T15:53:16.297Z,16.90
2023-01-26T15:55:44.374Z,18.17
2023-01-26T15:58:11.319Z,17.60
2023-01-26T16:00:39.083Z,18.43
2023-01-26T16:03:16.154Z,18.37
2023-01-26T16:05:44.273Z,17.07
2023-01-26T16:08:11.127Z,17.50
2023-01-26T16:10:38.356Z,17.10
2023-01-26T16:13:12.187Z,17.20
2023-01-26T16:15:41.838Z,16.47
2023-01-26T16:18:09.227Z,15.47
2023-01-26T16:20:38.507Z,16.43
2023-01-26T16:23:27.484Z,15.97
2023-01-26T16:25:55.185Z,16.67
2023-01-26T16:28:22.524Z,16.27
2023-01-26T16:30:53.833Z,15.30
2023-01-26T16:33:24.825Z,14.83
2023-01-26T16:35:51.840Z,16.67
2023-01-26T16:38:18.628Z,17.87
2023-01-26T16:40:48.395Z,17.07
2023-01-26T16:43:23.813Z,16.70
2023-01-26T16:45:51.483Z,17.80
2023-01-26T16:48:18.538Z,16.70
2023-01-26T16:50:45.441Z,16.27
2023-01-26T16:53:28.947Z,16.17
2023-01-26T16:55:56.160Z,14.53
2023-01-26T16:58:29.181Z,14.93
2023-01-26T17:00:56.476Z,17.00
2023-01-26T17:03:24.283Z,15.90
2023-01-26T17:05:51.262Z,14.87
2023-01-26T17:08:18.392Z,16.43
2023-01-26T17:11:00.677Z,16.43
2023-01-26T17:13:29.169Z,15.57
2023-01-26T17:15:57.516Z,16.57
2023-01-26T17:18:24.989Z,15.93
2023-01-26T17:20:51.893Z,16.93
2023-01-26T17:23:19.640Z,16.13
2023-01-26T17:25:46.530Z,15.60
2023-01-26T17:28:13.373Z,17.73
2023-01-26T17:30:40.206Z,18.70
2023-01-26T17:33:07.086Z,18.67
2023-01-26T17:35:33.871Z,17.87
2023-01-26T17:38:00.609Z,17.30
2023-01-26T17:40:27.437Z,14.97
2023-01-26T17:42:54.223Z,15.77
2023-01-26T17:45:21.240Z,16.30
2023-01-26T17:47:48.142Z,16.03
2023-01-26T17:50:15.239Z,15.77
2023-01-26T17:52:42.045Z,19.13
2023-01-26T17:55:09.764Z,17.17
2023-01-26T17:57:36.750Z,15.47
2023-01-26T18:00:05.055Z,16.10
2023-01-26T18:02:32.070Z,16.03
2023-01-26T18:04:58.937Z,17.13
2023-01-26T18:07:25.927Z,19.00
2023-01-26T18:09:52.871Z,18.17
2023-01-26T18:12:19.662Z,20.30
2023-01-26T18:14:48.375Z,18.30
2023-01-26T18:17:15.411Z,19.33
2023-01-26T18:19:42.284Z,17.53
2023-01-26T18:22:09.091Z,18.77
2023-01-26T18:24:36.473Z,17.77
2023-01-26T18:27:03.303Z,18.67
2023-01-26T18:29:30.258Z,17.73
2023-01-26T18:31:57.041Z,18.13
2023-01-26T18:34:23.826Z,19.40
2023-01-26T18:36:50.600Z,18.53
2023-01-26T18:39:18.215Z,20.33
2023-01-26T18:41:45.023Z,19.27
2023-01-26T18:44:11.909Z,19.77
2023-01-26T18:46:39.049Z,20.70
2023-01-26T18:49:06.039Z,19.97
2023-01-26T18:51:35.487Z,19.50
2023-01-26T18:54:04.225Z,19.70
2023-01-26T18:56:32.808Z,19.87
2023-01-26T18:58:59.838Z,18.23
2023-01-26T19:01:26.929Z,18.67
2023-01-26T19:03:55.491Z,19.90
2023-01-26T19:06:23.966Z,19.03
2023-01-26T19:08:58.463Z,17.60
2023-01-26T19:11:28.186Z,12.90
2023-01-26T19:13:55.686Z,13.53
2023-01-26T19:16:23.348Z,12.87
2023-01-26T19:18:51.766Z,10.33
2023-01-26T19:21:21.803Z,11.20
2023-01-26T19:23:49.195Z,10.43
2023-01-26T19:26:21.527Z,10.43
2023-01-26T19:28:50.623Z,10.63
2023-01-26T19:31:19.439Z,10.53
2023-01-26T19:33:58.396Z,10.57
2023-01-26T19:36:27.329Z,9.30
2023-01-26T19:38:54.562Z,10.67
2023-01-26T19:41:22.415Z,10.37
2023-01-26T19:43:50.427Z,10.83
2023-01-26T19:46:18.601Z,10.00
2023-01-26T19:48:46.329Z,9.70
2023-01-26T19:51:21.909Z,10.30
2023-01-26T19:53:50.888Z,9.73
2023-01-26T19:56:23.391Z,9.60
2023-01-26T19:58:51.992Z,8.70
2023-01-26T20:01:19.708Z,8.07
2023-01-26T20:03:54.181Z,8.00
2023-01-26T20:06:24.881Z,7.17
2023-01-26T20:08:53.479Z,8.20
2023-01-26T20:11:24.955Z,7.57
2023-01-26T20:14:11.560Z,6.70
2023-01-26T20:16:39.649Z,7.30
2023-01-26T20:19:09.835Z,6.73
2023-01-26T20:21:38.822Z,7.10
2023-01-26T20:24:06.940Z,6.27
2023-01-26T20:26:34.380Z,6.60
2023-01-26T20:29:01.399Z,6.00
2023-01-26T20:31:28.383Z,7.10
2023-01-26T20:33:57.265Z,6.43
2023-01-26T20:36:27.126Z,5.73
2023-01-26T20:38:54.607Z,5.53
2023-01-26T20:41:25.467Z,5.67
2023-01-26T20:43:59.739Z,5.03
2023-01-26T20:46:30.747Z,4.60
2023-01-26T20:48:57.695Z,44.97
2023-01-26T20:51:29.463Z,11.83
2023-01-26T20:53:58.240Z,5.97
2023-01-26T20:56:26.014Z,5.50
2023-01-26T20:58:54.437Z,3.90
2023-01-26T21:01:22.400Z,4.33
2023-01-26T21:03:49.899Z,4.47
2023-01-26T21:06:21.196Z,4.90
2023-01-26T21:08:49.472Z,4.97
2023-01-26T21:11:17.227Z,4.83
2023-01-26T21:13:44.314Z,4.87
2023-01-26T21:16:14.103Z,5.73
2023-01-26T21:18:41.528Z,4.87
2023-01-26T21:21:11.961Z,5.30
2023-01-26T21:23:39.079Z,5.00
2023-01-26T21:26:11.044Z,5.87
2023-01-26T21:28:38.207Z,6.03
2023-01-26T21:31:07.907Z,5.27
2023-01-26T21:33:38.322Z,4.90
2023-01-26T21:36:06.398Z,5.03
2023-01-26T21:38:35.489Z,7.00
2023-01-26T21:41:26.543Z,5.40
2023-01-26T21:44:17.741Z,6.40
2023-01-26T21:46:46.091Z,5.73
2023-01-26T21:49:14.827Z,6.00
2023-01-26T21:52:00.855Z,4.40
2023-01-26T21:54:30.023Z,7.20
2023-01-26T21:56:57.747Z,5.37
2023-01-26T21:59:24.878Z,4.53
2023-01-26T22:01:53.934Z,4.20
2023-01-26T22:04:25.057Z,4.03
2023-01-26T22:06:59.193Z,3.80
2023-01-26T22:09:26.260Z,4.90
2023-01-26T22:11:53.075Z,3.87
2023-01-26T22:14:22.995Z,4.30
2023-01-26T22:16:49.994Z,3.97
2023-01-26T22:19:16.911Z,3.87
2023-01-26T22:21:44.631Z,4.43
2023-01-26T22:24:14.457Z,3.97
2023-01-26T22:26:41.944Z,3.47
2023-01-26T22:29:12.504Z,3.40
2023-01-26T22:31:39.650Z,3.50
2023-01-26T22:34:07.002Z,3.60
2023-01-26T22:36:33.925Z,3.67
2023-01-26T22:39:00.806Z,3.30
2023-01-26T22:41:30.033Z,3.07
2023-01-26T22:43:59.198Z,3.40
2023-01-26T22:46:27.489Z,2.73
2023-01-26T22:48:57.324Z,2.80
2023-01-26T22:51:29.775Z,3.10
2023-01-26T22:53:58.115Z,2.50
2023-01-26T22:56:25.995Z,2.70
2023-01-26T22:58:59.565Z,3.47
2023-01-26T23:01:28.889Z,2.90
2023-01-26T23:03:57.563Z,3.67
2023-01-26T23:06:25.113Z,2.50
2023-01-26T23:08:53.292Z,2.30
2023-01-26T23:11:28.769Z,2.40
2023-01-26T23:13:57.805Z,2.40
2023-01-26T23:16:26.068Z,2.70
2023-01-26T23:18:54.899Z,2.57
2023-01-26T23:21:22.249Z,2.77
2023-01-26T23:23:49.116Z,2.70
2023-01-26T23:26:16.070Z,2.40
2023-01-26T23:28:44.665Z,2.60
2023-01-26T23:31:13.839Z,2.60
2023-01-26T23:33:41.057Z,2.87
2023-01-26T23:36:12.287Z,2.57
2023-01-26T23:38:39.079Z,2.20
2023-01-26T23:41:06.506Z,2.47
2023-01-26T23:43:33.264Z,2.40
2023-01-26T23:46:00.362Z,2.37
2023-01-26T23:48:27.373Z,2.50
2023-01-26T23:51:02.924Z,2.90
2023-01-26T23:53:30.751Z,2.43
2023-01-26T23:56:00.044Z,2.53
2023-01-26T23:58:27.029Z,2.23
